Time;durP1;ratioP1;P1;durP2;ratioP2;P2;SDS_P1;SDS_P2;PMS_P1;PMS_P2;Temp;Humidity;BMP_temperature;BMP_pressure;BME280_temperature;BME280_humidity;BME280_pressure;Samples;Min_cycle;Max_cycle;Signal;HPM_P1;HPM_P2
2022/07/16 00:02:45;;;;;;;5.03;2.67;;;14.80;99.90;;;;;;9179164;19;20053;-67
2022/07/16 00:05:51;;;;;;;4.03;2.63;;;14.70;99.90;;;;;;9181439;19;20591;-67
2022/07/16 00:08:55;;;;;;;5.85;2.20;;;14.60;99.90;;;;;;9181799;19;20018;-67
2022/07/16 00:12:00;;;;;;;3.35;2.20;;;14.50;99.90;;;;;;9181642;19;20011;-68
2022/07/16 00:15:04;;;;;;;6.45;2.95;;;14.70;99.90;;;;;;9183593;19;20017;-69
2022/07/16 00:21:28;;;;;;;6.70;2.85;;;14.50;99.90;;;;;;9180275;19;20018;-69
2022/07/16 00:24:32;;;;;;;5.38;2.90;;;14.50;99.90;;;;;;9181003;19;20019;-68
2022/07/16 00:27:36;;;;;;;8.13;2.70;;;14.60;99.90;;;;;;9173157;19;20066;-68
2022/07/16 00:30:40;;;;;;;6.22;3.00;;;14.60;99.90;;;;;;9180685;19;20014;-68
2022/07/16 00:33:44;;;;;;;5.57;3.00;;;14.60;99.90;;;;;;9181372;19;20018;-68
2022/07/16 00:36:51;;;;;;;6.90;3.00;;;14.50;99.90;;;;;;9179313;19;20048;-68
2022/07/16 00:39:55;;;;;;;5.18;2.78;;;14.50;99.90;;;;;;9181253;19;20460;-67
2022/07/16 00:42:59;;;;;;;5.60;3.08;;;14.80;99.90;;;;;;9177639;19;20018;-68
2022/07/16 00:46:03;;;;;;;6.20;3.13;;;14.70;99.90;;;;;;9181568;19;20021;-68
2022/07/16 00:49:07;;;;;;;5.00;3.03;;;14.80;99.90;;;;;;9180171;19;20018;-68
2022/07/16 00:52:14;;;;;;;5.35;2.83;;;14.60;99.90;;;;;;9180159;19;20479;-67
2022/07/16 00:55:17;;;;;;;5.60;3.13;;;14.80;99.90;;;;;;9179899;19;20033;-67
2022/07/16 00:58:21;;;;;;;6.78;3.20;;;14.60;99.90;;;;;;9180836;19;20372;-68
2022/07/16 01:01:26;;;;;;;5.65;3.30;;;14.80;99.90;;;;;;9177964;19;20055;-67
2022/07/16 01:04:30;;;;;;;7.55;3.63;;;14.60;99.90;;;;;;9180577;19;20093;-68
2022/07/16 01:07:38;;;;;;;6.15;3.53;;;14.50;99.90;;;;;;9178878;19;20387;-68
2022/07/16 01:10:43;;;;;;;5.22;3.80;;;14.70;99.90;;;;;;9178636;19;20092;-67
2022/07/16 01:13:50;;;;;;;5.20;3.47;;;14.40;99.90;;;;;;9177687;19;20019;-69
2022/07/16 01:16:54;;;;;;;6.87;3.80;;;14.40;99.90;;;;;;9176723;19;20015;-68
2022/07/16 01:19:58;;;;;;;7.60;4.13;;;14.30;99.90;;;;;;9176904;19;20021;-68
2022/07/16 01:23:05;;;;;;;4.85;3.63;;;14.30;99.90;;;;;;9179544;19;20018;-68
2022/07/16 01:26:12;;;;;;;6.10;3.92;;;14.40;99.90;;;;;;9171996;19;20015;-68
2022/07/16 01:29:15;;;;;;;8.40;4.20;;;14.20;99.90;;;;;;9179621;19;20106;-68
2022/07/16 01:32:20;;;;;;;8.10;3.70;;;14.20;99.90;;;;;;9179178;19;20019;-68
2022/07/16 01:35:24;;;;;;;5.40;3.85;;;14.40;99.90;;;;;;9178719;19;20051;-68
2022/07/16 01:38:29;;;;;;;4.88;3.78;;;14.30;99.90;;;;;;9177877;19;20352;-68
2022/07/16 01:41:35;;;;;;;10.10;4.28;;;14.40;99.90;;;;;;9177323;19;20369;-68
2022/07/16 01:44:40;;;;;;;5.82;3.58;;;14.40;99.90;;;;;;9174072;19;20022;-68
2022/07/16 01:47:44;;;;;;;4.95;3.80;;;15.10;99.90;;;;;;9174636;19;20022;-68
2022/07/16 01:50:49;;;;;;;7.03;3.80;;;14.50;99.90;;;;;;9180009;19;20022;-68
2022/07/16 01:53:52;;;;;;;9.20;3.55;;;14.30;99.90;;;;;;9178872;19;20070;-68
2022/07/16 01:56:59;;;;;;;4.32;3.15;;;14.30;99.90;;;;;;9178559;19;20015;-68
2022/07/16 02:00:03;;;;;;;4.80;2.97;;;14.30;99.90;;;;;;9178857;19;20014;-68
2022/07/16 02:03:07;;;;;;;5.68;2.47;;;14.30;99.90;;;;;;9175933;19;20018;-69
2022/07/16 02:06:11;;;;;;;4.53;2.50;;;14.30;99.90;;;;;;9176848;19;20034;-68
2022/07/16 02:09:15;;;;;;;4.05;2.22;;;14.10;99.90;;;;;;9175822;19;20025;-68
2022/07/16 02:12:22;;;;;;;4.50;2.38;;;14.30;99.90;;;;;;9176732;19;20025;-68
2022/07/16 02:15:26;;;;;;;6.38;2.40;;;14.10;99.90;;;;;;9176148;19;20007;-68
2022/07/16 02:18:30;;;;;;;7.75;2.65;;;14.10;99.90;;;;;;9172903;19;20011;-67
2022/07/16 02:21:35;;;;;;;5.45;1.95;;;14.10;99.90;;;;;;9178659;19;20015;-68
2022/07/16 02:24:39;;;;;;;7.90;2.13;;;14.00;99.90;;;;;;9178186;19;20019;-68
2022/07/16 02:31:01;;;;;;;6.13;2.13;;;14.10;99.90;;;;;;9175811;19;20395;-68
2022/07/16 02:34:05;;;;;;;5.15;2.17;;;14.10;99.90;;;;;;9177051;19;20022;-69
2022/07/16 02:37:09;;;;;;;7.78;2.10;;;14.00;99.90;;;;;;9177833;19;20014;-68
2022/07/16 02:40:14;;;;;;;4.88;2.15;;;14.20;99.90;;;;;;9178241;19;20015;-68
2022/07/16 02:43:20;;;;;;;4.18;1.75;;;13.90;99.90;;;;;;9176448;19;20009;-68
2022/07/16 02:46:24;;;;;;;4.65;2.00;;;14.10;99.90;;;;;;9181799;19;20389;-69
2022/07/16 02:49:28;;;;;;;3.53;1.92;;;14.00;99.90;;;;;;9179548;19;20480;-69
2022/07/16 02:52:32;;;;;;;6.45;1.92;;;14.10;99.90;;;;;;9184871;19;20015;-67
2022/07/16 02:55:36;;;;;;;4.82;1.80;;;14.00;99.90;;;;;;9182891;19;20025;-68
2022/07/16 02:58:43;;;;;;;6.82;2.08;;;14.00;99.90;;;;;;9177697;19;20403;-68
2022/07/16 03:01:47;;;;;;;5.00;1.70;;;13.60;99.90;;;;;;9180478;19;20011;-69
2022/07/16 03:04:51;;;;;;;7.72;2.05;;;14.00;99.90;;;;;;9185896;19;20026;-68
2022/07/16 03:07:55;;;;;;;4.90;1.95;;;14.00;99.90;;;;;;9180457;19;20038;-68
2022/07/16 03:10:59;;;;;;;5.88;2.25;;;13.70;99.90;;;;;;9179589;19;20014;-68
2022/07/16 03:14:05;;;;;;;5.47;1.80;;;13.90;99.90;;;;;;9185414;19;20018;-68
2022/07/16 03:17:10;;;;;;;6.72;2.10;;;13.90;99.90;;;;;;9183831;19;21505;-68
2022/07/16 03:20:15;;;;;;;7.18;2.05;;;13.80;99.90;;;;;;9177991;19;20029;-68
2022/07/16 03:23:19;;;;;;;8.35;2.10;;;13.80;99.90;;;;;;9184955;19;20490;-68
2022/07/16 03:26:23;;;;;;;6.47;2.00;;;13.40;99.90;;;;;;9180493;19;20022;-68
2022/07/16 03:29:29;;;;;;;4.57;1.77;;;13.60;99.90;;;;;;9177151;19;20044;-68
2022/07/16 03:32:33;;;;;;;4.97;1.90;;;13.70;99.90;;;;;;9173969;19;20095;-68
2022/07/16 03:35:37;;;;;;;6.13;1.90;;;13.50;99.90;;;;;;9181200;19;20070;-68
2022/07/16 03:41:57;;;;;;;9.10;2.08;;;13.60;99.90;;;;;;9175136;19;20025;-67
2022/07/16 03:45:04;;;;;;;5.80;2.13;;;13.60;99.90;;;;;;9182008;19;20025;-68
2022/07/16 03:48:08;;;;;;;4.90;2.10;;;13.50;99.90;;;;;;9182147;19;20048;-68
2022/07/16 03:51:12;;;;;;;5.07;2.00;;;13.50;99.90;;;;;;9182763;19;20018;-68
2022/07/16 03:54:16;;;;;;;6.72;2.10;;;13.70;99.90;;;;;;9183263;19;20015;-68
2022/07/16 03:57:20;;;;;;;5.95;1.90;;;13.60;99.90;;;;;;9181153;19;20015;-67
2022/07/16 04:00:26;;;;;;;6.15;2.20;;;13.50;99.90;;;;;;9184179;19;20022;-68
2022/07/16 04:03:31;;;;;;;4.30;2.03;;;13.60;99.90;;;;;;9181523;19;20499;-68
2022/07/16 04:06:35;;;;;;;6.03;2.00;;;13.70;99.90;;;;;;9181323;19;20015;-68
2022/07/16 04:09:38;;;;;;;2.60;1.67;;;13.40;99.90;;;;;;9181389;19;20533;-68
2022/07/16 04:12:42;;;;;;;4.43;2.40;;;13.70;99.90;;;;;;9182890;19;20186;-68
2022/07/16 04:15:49;;;;;;;4.10;1.88;;;13.30;99.90;;;;;;9179752;19;20015;-68
2022/07/16 04:18:54;;;;;;;4.18;1.85;;;13.40;99.90;;;;;;9178194;19;20078;-67
2022/07/16 04:21:57;;;;;;;6.10;2.10;;;13.40;99.90;;;;;;9181699;19;20056;-67
2022/07/16 04:25:01;;;;;;;7.85;2.20;;;13.40;99.90;;;;;;9180394;19;20022;-68
2022/07/16 04:28:06;;;;;;;5.55;2.10;;;13.30;99.90;;;;;;9177402;19;20022;-68
2022/07/16 04:31:12;;;;;;;5.95;2.10;;;13.30;99.90;;;;;;9180024;19;20031;-68
2022/07/16 04:34:21;;;;;;;6.78;2.47;;;13.30;99.90;;;;;;9180061;19;20511;-68
2022/07/16 04:37:25;;;;;;;4.50;2.03;;;13.40;99.90;;;;;;9178094;19;20507;-68
2022/07/16 04:40:29;;;;;;;6.35;2.20;;;13.40;99.90;;;;;;9179124;19;20006;-68
2022/07/16 04:43:33;;;;;;;6.40;2.42;;;13.30;99.90;;;;;;9180423;19;20033;-68
2022/07/16 04:46:40;;;;;;;5.70;2.67;;;13.20;99.90;;;;;;9181921;19;20112;-68
2022/07/16 04:49:44;;;;;;;6.20;2.20;;;13.20;99.90;;;;;;9178891;19;20014;-68
2022/07/16 04:52:48;;;;;;;7.50;2.25;;;13.00;99.90;;;;;;9178516;19;20014;-68
2022/07/16 04:55:52;;;;;;;5.15;2.28;;;13.10;99.90;;;;;;9176626;19;20049;-66
2022/07/16 04:58:55;;;;;;;5.90;2.20;;;13.00;99.90;;;;;;9179715;19;20018;-69
2022/07/16 05:05:19;;;;;;;6.90;2.53;;;13.20;99.90;;;;;;9175979;19;20544;-69
2022/07/16 05:08:23;;;;;;;5.57;2.22;;;13.20;99.90;;;;;;9174843;19;20011;-69
2022/07/16 05:11:27;;;;;;;7.05;2.33;;;13.40;99.90;;;;;;9174769;19;20010;-69
2022/07/16 05:14:31;;;;;;;4.82;2.60;;;13.40;99.90;;;;;;9179236;19;20010;-69
2022/07/16 05:17:38;;;;;;;7.90;2.17;;;13.50;99.90;;;;;;9176403;19;20015;-68
2022/07/16 05:20:43;;;;;;;8.15;2.60;;;13.40;99.90;;;;;;9165933;19;20085;-68
2022/07/16 05:23:47;;;;;;;7.20;2.25;;;13.60;99.90;;;;;;9174795;19;20022;-67
2022/07/16 05:26:51;;;;;;;7.57;2.40;;;13.60;99.90;;;;;;9176632;19;20018;-67
2022/07/16 05:29:54;;;;;;;7.32;2.35;;;13.40;99.90;;;;;;9176303;19;20091;-68
2022/07/16 05:33:01;;;;;;;5.40;1.70;;;13.70;99.90;;;;;;9179380;19;20416;-67
2022/07/16 05:36:05;;;;;;;5.20;1.80;;;13.80;99.90;;;;;;9178500;19;20018;-67
2022/07/16 05:39:09;;;;;;;6.22;1.60;;;;;;;;;;9178003;19;20019;-67
2022/07/16 05:42:13;;;;;;;6.68;2.20;;;11.90;99.90;;;;;;9177934;19;20018;-67
2022/07/16 05:45:17;;;;;;;4.93;1.80;;;13.60;99.90;;;;;;9176940;19;20361;-68
2022/07/16 05:48:24;;;;;;;7.75;1.98;;;13.60;99.90;;;;;;9173011;19;20015;-67
2022/07/16 05:51:27;;;;;;;4.07;1.65;;;13.60;99.90;;;;;;9179980;19;20056;-67
2022/07/16 05:54:31;;;;;;;5.60;1.77;;;13.50;99.90;;;;;;9178402;19;20444;-66
2022/07/16 05:57:36;;;;;;;8.38;1.63;;;13.70;99.90;;;;;;9179428;19;20014;-68
2022/07/16 06:00:39;;;;;;;6.65;1.70;;;13.60;99.90;;;;;;9177078;19;20015;-67
2022/07/16 06:03:46;;;;;;;9.70;1.95;;;13.70;99.90;;;;;;9179001;19;20030;-67
2022/07/16 06:06:51;;;;;;;8.85;2.40;;;13.60;99.90;;;;;;9177513;19;20023;-67
2022/07/16 06:09:55;;;;;;;10.20;1.65;;;13.60;99.90;;;;;;9176510;19;20018;-65
2022/07/16 06:12:59;;;;;;;7.50;1.40;;;13.60;99.90;;;;;;9177268;19;20019;-66
2022/07/16 06:16:04;;;;;;;5.00;1.30;;;13.70;99.90;;;;;;9174934;19;20029;-66
2022/07/16 06:19:11;;;;;;;6.72;1.23;;;13.70;99.90;;;;;;9177591;19;20018;-66
2022/07/16 06:22:15;;;;;;;6.93;1.45;;;13.70;99.90;;;;;;9189555;19;20014;-67
2022/07/16 06:25:19;;;;;;;4.25;1.15;;;13.80;99.90;;;;;;9187559;19;20014;-67
2022/07/16 06:28:23;;;;;;;8.93;1.33;;;13.80;99.90;;;;;;9184257;19;20051;-67
2022/07/16 06:31:27;;;;;;;6.40;1.33;;;13.90;99.90;;;;;;9186382;19;20036;-67
2022/07/16 06:34:34;;;;;;;7.65;1.50;;;13.90;99.90;;;;;;9185985;19;20015;-67
2022/07/16 06:37:38;;;;;;;6.13;1.42;;;13.90;99.90;;;;;;9184171;19;20066;-66
2022/07/16 06:40:44;;;;;;;5.03;1.40;;;14.10;99.90;;;;;;9186115;19;20026;-66
2022/07/16 06:43:48;;;;;;;6.88;1.38;;;14.00;99.90;;;;;;9184370;19;20015;-66
2022/07/16 06:46:52;;;;;;;3.80;1.17;;;14.00;99.90;;;;;;9185123;19;20015;-67
2022/07/16 06:49:58;;;;;;;4.97;1.30;;;14.00;99.90;;;;;;9183586;19;20025;-67
2022/07/16 06:53:02;;;;;;;5.20;1.25;;;14.00;99.90;;;;;;9183464;19;20082;-66
2022/07/16 06:56:07;;;;;;;6.20;0.98;;;14.40;99.90;;;;;;9184985;19;20066;-66
2022/07/16 06:59:10;;;;;;;3.78;0.93;;;14.10;99.90;;;;;;9181780;19;20015;-66
2022/07/16 07:02:15;;;;;;;3.42;1.40;;;14.20;99.90;;;;;;9184394;19;20022;-66
2022/07/16 07:05:21;;;;;;;3.95;0.95;;;14.30;99.90;;;;;;9182796;19;20022;-66
2022/07/16 07:08:25;;;;;;;6.25;1.23;;;14.40;99.90;;;;;;9181387;19;20014;-66
2022/07/16 07:11:29;;;;;;;3.67;1.00;;;14.40;99.90;;;;;;9183587;19;20468;-66
2022/07/16 07:14:33;;;;;;;3.92;1.13;;;14.30;99.90;;;;;;9186022;19;20491;-66
2022/07/16 07:17:37;;;;;;;3.75;1.10;;;14.50;99.90;;;;;;9181571;19;20082;-66
2022/07/16 07:20:44;;;;;;;9.88;1.27;;;14.60;99.90;;;;;;9185355;19;20038;-66
2022/07/16 07:23:48;;;;;;;6.28;1.13;;;14.60;99.90;;;;;;9183901;19;20014;-66
2022/07/16 07:26:52;;;;;;;4.93;1.10;;;14.70;99.90;;;;;;9185469;19;20026;-66
2022/07/16 07:29:56;;;;;;;8.88;1.15;;;14.70;99.90;;;;;;9180194;19;20018;-66
2022/07/16 07:33:00;;;;;;;5.85;1.20;;;14.70;99.90;;;;;;9181505;19;20086;-67
2022/07/16 07:36:07;;;;;;;8.38;1.20;;;14.80;99.90;;;;;;9182368;19;20030;-66
2022/07/16 07:39:12;;;;;;;5.38;1.35;;;14.40;99.90;;;;;;9184384;19;20498;-67
2022/07/16 07:42:16;;;;;;;3.95;1.30;;;14.80;99.90;;;;;;9180970;19;20360;-67
2022/07/16 07:45:19;;;;;;;4.88;0.93;;;14.60;99.90;;;;;;9184750;19;20021;-67
2022/07/16 07:48:23;;;;;;;3.97;1.08;;;14.70;99.90;;;;;;9178226;19;20090;-67
2022/07/16 07:51:30;;;;;;;4.90;1.33;;;14.70;99.90;;;;;;9180385;19;20575;-66
2022/07/16 07:54:34;;;;;;;3.15;1.13;;;15.00;99.90;;;;;;9182749;19;20014;-66
2022/07/16 07:57:38;;;;;;;6.47;1.20;;;15.20;99.90;;;;;;9183662;19;20022;-66
2022/07/16 08:00:42;;;;;;;7.07;1.30;;;15.10;99.90;;;;;;9182598;19;20014;-67
2022/07/16 08:03:46;;;;;;;4.80;1.00;;;15.40;99.90;;;;;;9182516;19;20392;-66
2022/07/16 08:06:52;;;;;;;4.13;1.00;;;15.30;99.90;;;;;;9181256;19;20341;-68
2022/07/16 08:09:56;;;;;;;9.55;1.20;;;15.30;99.90;;;;;;9180095;19;20018;-69
2022/07/16 08:13:00;;;;;;;6.60;1.35;;;15.30;99.90;;;;;;9178121;19;20048;-67
2022/07/16 08:16:04;;;;;;;4.93;1.30;;;15.40;99.90;;;;;;9179498;19;20022;-68
2022/07/16 08:19:08;;;;;;;5.22;1.10;;;15.50;99.90;;;;;;9168699;19;20089;-68
2022/07/16 08:22:15;;;;;;;4.88;1.17;;;15.30;99.90;;;;;;9176144;19;20015;-68
2022/07/16 08:28:40;;;;;;;6.45;1.30;;;15.40;99.90;;;;;;9175553;19;20135;-68
2022/07/16 08:31:51;;;;;;;4.00;1.17;;;15.50;99.90;;;;;;9177455;19;20043;-71
2022/07/16 08:34:58;;;;;;;5.93;1.10;;;15.30;99.90;;;;;;9168735;19;20052;-70
2022/07/16 08:38:05;;;;;;;6.15;1.27;;;16.20;99.90;;;;;;9180738;19;20518;-71
2022/07/16 08:41:15;;;;;;;7.75;1.50;;;15.40;99.90;;;;;;9180911;19;20022;-70
2022/07/16 08:44:25;;;;;;;5.65;1.40;;;15.10;99.90;;;;;;9178648;19;20022;-70
2022/07/16 08:47:30;;;;;;;5.32;1.42;;;15.00;99.90;;;;;;9179524;19;20025;-69
2022/07/16 08:50:34;;;;;;;5.45;1.52;;;15.10;99.90;;;;;;9177253;19;20380;-69
2022/07/16 08:53:43;;;;;;;3.90;1.17;;;15.10;99.90;;;;;;9171354;19;20015;-70
2022/07/16 08:56:47;;;;;;;5.18;1.20;;;14.90;99.90;;;;;;9181873;19;20026;-68
2022/07/16 08:59:52;;;;;;;4.60;1.20;;;15.10;99.90;;;;;;9179342;19;20025;-68
2022/07/16 09:02:56;;;;;;;4.60;1.10;;;15.30;99.90;;;;;;9178334;19;20506;-68
2022/07/16 09:06:01;;;;;;;4.95;1.10;;;15.60;99.90;;;;;;9179112;19;20015;-68
2022/07/16 09:09:07;;;;;;;7.00;1.20;;;15.50;99.90;;;;;;9176224;19;20018;-67
2022/07/16 09:12:11;;;;;;;6.22;1.30;;;15.40;99.90;;;;;;9179091;19;20014;-68
2022/07/16 09:15:33;;;;;;;8.82;1.90;;;15.60;99.90;;;;;;9177076;19;20015;-67
2022/07/16 09:18:37;;;;;;;4.43;1.30;;;15.60;99.90;;;;;;9176466;19;20051;-68
2022/07/16 09:22:01;;;;;;;8.00;1.40;;;15.80;99.90;;;;;;9173083;19;20046;-69
2022/07/16 09:25:08;;;;;;;6.55;1.38;;;15.90;99.90;;;;;;9176862;19;20092;-68
2022/07/16 09:28:13;;;;;;;5.72;1.42;;;15.90;99.90;;;;;;9166766;19;20022;-68
2022/07/16 09:31:36;;;;;;;7.22;2.05;;;15.90;99.90;;;;;;9168591;19;20023;-68
2022/07/16 09:34:40;;;;;;;6.28;1.75;;;15.80;99.90;;;;;;9176618;19;20376;-73
2022/07/16 09:37:51;;;;;;;6.45;1.73;;;15.80;99.90;;;;;;9175350;19;20088;-68
2022/07/16 09:40:58;;;;;;;5.93;1.40;;;15.80;99.90;;;;;;9168242;19;20018;-71
2022/07/16 09:44:02;;;;;;;5.13;1.60;;;15.60;99.90;;;;;;9176302;19;20025;-70
2022/07/16 09:47:08;;;;;;;4.95;1.50;;;15.60;99.90;;;;;;9175759;19;20050;-70
2022/07/16 09:50:11;;;;;;;6.13;1.40;;;15.70;99.90;;;;;;9177119;19;20019;-70
2022/07/16 09:53:17;;;;;;;4.38;1.40;;;15.90;99.90;;;;;;9181685;19;20015;-71
2022/07/16 09:56:25;;;;;;;7.05;1.80;;;15.90;99.90;;;;;;9190258;19;20025;-71
2022/07/16 09:59:29;;;;;;;6.32;1.85;;;16.30;99.90;;;;;;9186336;19;20029;-70
2022/07/16 10:02:33;;;;;;;4.35;1.40;;;16.40;99.90;;;;;;9184306;19;20089;-69
2022/07/16 10:05:37;;;;;;;5.82;1.60;;;16.20;99.90;;;;;;9188310;19;20356;-66
2022/07/16 10:08:43;;;;;;;6.88;2.15;;;16.20;99.90;;;;;;9182291;19;20074;-66
2022/07/16 10:11:50;;;;;;;5.28;1.40;;;16.20;99.90;;;;;;9185246;19;20014;-66
2022/07/16 10:14:56;;;;;;;4.30;1.30;;;16.40;99.90;;;;;;9187708;19;20026;-66
2022/07/16 10:18:00;;;;;;;6.85;1.48;;;16.70;99.90;;;;;;9183092;19;20017;-66
2022/07/16 10:21:08;;;;;;;6.28;1.40;;;16.40;99.90;;;;;;9189111;19;20010;-66
2022/07/16 10:24:14;;;;;;;9.18;3.03;;;16.30;99.90;;;;;;9189882;19;20351;-66
2022/07/16 10:27:38;;;;;;;9.27;2.40;;;16.30;99.40;;;;;;9186295;19;20018;-66
2022/07/16 10:30:43;;;;;;;8.90;1.65;;;16.30;98.40;;;;;;9181823;19;20018;-68
2022/07/16 10:33:47;;;;;;;4.78;1.20;;;16.70;99.00;;;;;;9186790;19;20056;-68
2022/07/16 10:36:53;;;;;;;8.23;2.40;;;16.70;99.10;;;;;;9186377;19;20021;-68
2022/07/16 10:40:06;;;;;;;5.57;1.10;;;16.60;98.40;;;;;;9184283;19;20499;-67
2022/07/16 10:43:18;;;;;;;8.00;1.48;;;16.80;99.90;;;;;;9184788;19;21051;-68
2022/07/16 10:46:28;;;;;;;10.25;1.73;;;17.00;99.90;;;;;;9184750;19;20041;-69
2022/07/16 10:49:33;;;;;;;3.05;1.33;;;17.00;99.90;;;;;;9182361;19;20014;-68
2022/07/16 10:52:44;;;;;;;13.45;1.92;;;17.20;99.90;;;;;;9189055;19;20073;-68
2022/07/16 10:55:48;;;;;;;5.40;1.70;;;17.20;99.90;;;;;;9187650;19;20027;-67
2022/07/16 10:58:54;;;;;;;12.38;1.63;;;17.30;99.80;;;;;;9185759;19;20010;-67
2022/07/16 11:02:00;;;;;;;6.93;2.13;;;17.30;99.90;;;;;;9184324;19;20043;-67
2022/07/16 11:05:04;;;;;;;7.93;1.58;;;17.40;99.70;;;;;;9182041;19;20011;-67
2022/07/16 11:08:10;;;;;;;7.57;1.60;;;17.20;99.90;;;;;;9181347;19;20467;-67
2022/07/16 11:11:14;;;;;;;6.78;1.50;;;17.10;99.90;;;;;;9182601;19;20017;-66
2022/07/16 11:14:20;;;;;;;4.53;1.58;;;17.30;99.90;;;;;;9183497;19;20014;-67
2022/07/16 11:17:26;;;;;;;6.13;1.77;;;17.40;99.90;;;;;;9182507;19;20011;-67
2022/07/16 11:20:38;;;;;;;6.07;1.30;;;17.30;99.90;;;;;;9187650;19;20082;-67
2022/07/16 11:23:52;;;;;;;7.72;1.52;;;17.50;99.90;;;;;;9183065;19;20007;-67
2022/07/16 11:26:57;;;;;;;5.72;1.67;;;17.70;99.90;;;;;;9187223;19;20527;-67
2022/07/16 11:30:06;;;;;;;8.35;1.65;;;17.50;99.90;;;;;;9181438;19;20037;-67
2022/07/16 11:33:10;;;;;;;8.32;1.70;;;17.30;99.90;;;;;;9182298;19;20014;-67
2022/07/16 11:36:14;;;;;;;6.88;1.77;;;17.50;99.90;;;;;;9181888;19;20021;-67
2022/07/16 11:39:20;;;;;;;7.38;1.48;;;17.50;99.90;;;;;;9181377;19;20372;-67
2022/07/16 11:42:24;;;;;;;5.47;1.60;;;17.30;99.90;;;;;;9184809;19;20014;-67
2022/07/16 11:45:37;;;;;;;9.65;1.92;;;17.40;99.90;;;;;;9181943;19;20010;-67
2022/07/16 11:48:41;;;;;;;6.75;1.60;;;18.10;99.90;;;;;;9183112;19;20030;-67
2022/07/16 11:51:45;;;;;;;5.40;1.20;;;18.00;99.30;;;;;;9183911;19;20237;-67
2022/07/16 11:54:49;;;;;;;5.70;1.42;;;17.90;98.70;;;;;;9185528;19;20011;-67
2022/07/16 11:57:53;;;;;;;6.60;1.20;;;17.80;99.10;;;;;;9183438;19;20014;-67
2022/07/16 12:01:00;;;;;;;6.43;1.38;;;17.60;98.50;;;;;;9181387;19;20078;-67
2022/07/16 12:04:04;;;;;;;7.10;1.35;;;17.80;98.80;;;;;;9182002;19;20016;-68
2022/07/16 12:07:11;;;;;;;5.18;1.70;;;18.00;97.40;;;;;;9179176;19;20105;-67
2022/07/16 12:10:15;;;;;;;10.48;1.80;;;17.80;97.30;;;;;;9180080;19;20014;-69
2022/07/16 12:13:20;;;;;;;3.90;1.48;;;17.70;97.90;;;;;;9181046;19;20400;-68
2022/07/16 12:16:27;;;;;;;5.15;1.20;;;18.10;98.30;;;;;;9181134;19;20014;-69
2022/07/16 12:19:33;;;;;;;5.18;1.30;;;18.10;96.70;;;;;;9180266;19;20024;-69
2022/07/16 12:22:56;;;;;;;6.10;1.20;;;17.90;97.30;;;;;;9180834;19;20487;-68
2022/07/16 12:26:04;;;;;;;3.88;1.10;;;17.90;97.10;;;;;;9180558;19;20014;-67
2022/07/16 12:29:11;;;;;;;3.35;1.13;;;18.00;96.80;;;;;;9179787;19;20022;-67
2022/07/16 12:32:18;;;;;;;5.85;1.48;;;18.30;97.30;;;;;;9180803;19;20022;-67
2022/07/16 12:35:48;;;;;;;4.57;1.10;;;18.50;96.50;;;;;;9179870;19;20007;-68
2022/07/16 12:38:54;;;;;;;4.95;1.27;;;18.30;95.30;;;;;;9180958;19;20021;-68
2022/07/16 12:41:58;;;;;;;5.90;1.73;;;18.20;95.30;;;;;;9180293;19;20515;-67
2022/07/16 12:45:02;;;;;;;5.18;1.52;;;19.70;96.50;;;;;;9179598;19;20006;-68
2022/07/16 12:48:09;;;;;;;5.78;1.40;;;19.20;95.80;;;;;;9180379;19;20487;-68
2022/07/16 12:51:14;;;;;;;10.50;2.50;;;19.60;95.60;;;;;;9178007;19;20126;-68
2022/07/16 12:54:21;;;;;;;7.47;2.55;;;19.20;94.90;;;;;;9179205;19;20086;-67
2022/07/16 13:00:41;;;;;;;7.22;1.38;;;18.90;94.60;;;;;;9179323;19;20078;-68
2022/07/16 13:03:48;;;;;;;4.80;1.35;;;18.80;95.10;;;;;;9183735;19;20025;-68
2022/07/16 13:06:52;;;;;;;5.68;1.20;;;18.90;95.60;;;;;;9178304;19;20010;-68
2022/07/16 13:09:56;;;;;;;5.00;1.30;;;18.90;93.80;;;;;;9178278;19;20015;-68
2022/07/16 13:13:00;;;;;;;7.57;1.70;;;18.70;93.40;;;;;;9178635;19;20010;-68
2022/07/16 13:16:05;;;;;;;2.90;1.33;;;18.60;92.70;;;;;;9179000;19;20021;-68
2022/07/16 13:19:12;;;;;;;8.07;1.80;;;18.50;93.50;;;;;;9180384;19;20028;-68
2022/07/16 13:22:16;;;;;;;5.20;1.52;;;18.60;93.40;;;;;;9177975;19;20017;-68
2022/07/16 13:25:20;;;;;;;4.20;1.73;;;18.90;93.20;;;;;;9177983;19;20043;-68
2022/07/16 13:28:24;;;;;;;7.03;1.58;;;19.00;92.10;;;;;;9177447;19;20011;-68
2022/07/16 13:31:29;;;;;;;6.18;1.20;;;19.00;93.10;;;;;;9179921;19;20019;-68
2022/07/16 13:34:35;;;;;;;5.00;1.40;;;18.80;93.60;;;;;;9177864;19;20011;-68
2022/07/16 13:37:40;;;;;;;4.50;1.20;;;18.60;93.30;;;;;;9178311;19;20022;-68
2022/07/16 13:40:44;;;;;;;3.90;1.40;;;18.50;92.80;;;;;;9179808;19;20506;-68
2022/07/16 13:43:48;;;;;;;5.10;1.60;;;18.60;93.30;;;;;;9177416;19;20014;-68
2022/07/16 13:46:52;;;;;;;4.15;1.60;;;18.50;94.10;;;;;;9177798;19;20415;-68
2022/07/16 13:49:59;;;;;;;7.53;1.20;;;18.10;94.30;;;;;;9177167;19;20014;-68
2022/07/16 13:53:03;;;;;;;4.03;1.38;;;18.60;93.40;;;;;;9177300;19;20341;-68
2022/07/16 13:56:07;;;;;;;4.25;1.55;;;18.80;92.40;;;;;;9177837;19;20040;-67
2022/07/16 13:59:11;;;;;;;3.40;1.30;;;19.30;91.80;;;;;;9176896;19;20033;-68
2022/07/16 14:02:15;;;;;;;4.35;1.27;;;19.50;92.60;;;;;;9176481;19;20476;-68
2022/07/16 14:05:21;;;;;;;8.05;1.90;;;19.70;93.40;;;;;;9176864;19;20034;-68
2022/07/16 14:08:27;;;;;;;6.40;1.85;;;19.70;92.80;;;;;;9174171;19;20029;-68
2022/07/16 14:11:31;;;;;;;9.07;1.77;;;19.60;92.50;;;;;;9175239;19;20019;-68
2022/07/16 14:14:35;;;;;;;3.17;1.15;;;19.70;93.10;;;;;;9177929;19;20018;-68
2022/07/16 14:17:39;;;;;;;5.90;1.33;;;19.50;93.40;;;;;;9176950;19;20018;-68
2022/07/16 14:20:46;;;;;;;5.28;1.77;;;19.40;92.70;;;;;;9176015;19;20021;-68
2022/07/16 14:23:49;;;;;;;;;;;19.40;92.70;;;;;;9176953;19;20018;-68
2022/07/16 14:26:53;;;;;;;7.68;1.58;;;19.30;93.00;;;;;;9176676;19;19913;-69
2022/07/16 14:29:57;;;;;;;4.82;1.25;;;19.70;93.10;;;;;;9179349;19;20011;-68
2022/07/16 14:33:01;;;;;;;4.78;1.40;;;20.30;92.90;;;;;;9176013;19;20014;-68
2022/07/16 14:36:08;;;;;;;3.83;1.00;;;20.60;91.90;;;;;;9176070;19;20491;-68
2022/07/16 14:39:12;;;;;;;4.65;1.10;;;20.50;91.60;;;;;;9180520;19;20003;-68
2022/07/16 14:42:16;;;;;;;7.93;1.88;;;20.40;91.50;;;;;;9188534;19;20022;-68
2022/07/16 14:45:22;;;;;;;5.22;1.40;;;19.90;91.00;;;;;;9184561;19;20509;-68
2022/07/16 14:48:26;;;;;;;7.80;2.15;;;20.20;91.30;;;;;;9185002;19;20007;-68
2022/07/16 14:51:32;;;;;;;5.18;1.40;;;20.00;90.10;;;;;;9188422;19;20023;-68
2022/07/16 14:54:36;;;;;;;5.97;1.77;;;20.10;91.10;;;;;;9185989;19;20018;-67
2022/07/16 14:57:40;;;;;;;6.10;1.50;;;20.20;91.10;;;;;;9184040;19;20021;-66
2022/07/16 15:00:45;;;;;;;9.38;2.17;;;20.70;90.30;;;;;;9184153;19;20014;-66
2022/07/16 15:03:49;;;;;;;7.53;2.20;;;20.40;88.00;;;;;;9186784;19;20025;-67
2022/07/16 15:06:55;;;;;;;6.18;1.23;;;20.60;89.10;;;;;;9182829;19;20333;-67
2022/07/16 15:09:59;;;;;;;7.97;2.10;;;20.80;89.40;;;;;;9184510;19;20044;-68
2022/07/16 15:13:04;;;;;;;3.80;1.38;;;20.70;87.40;;;;;;9179984;19;20356;-67
2022/07/16 15:16:08;;;;;;;5.50;1.48;;;20.70;85.80;;;;;;9184613;19;20386;-66
2022/07/16 15:19:12;;;;;;;4.95;1.35;;;20.30;87.00;;;;;;9180423;19;20552;-67
2022/07/16 15:22:19;;;;;;;9.48;2.72;;;20.80;87.70;;;;;;9183085;19;20007;-67
2022/07/16 15:25:22;;;;;;;7.22;2.17;;;20.80;84.00;;;;;;9183062;19;20036;-68
2022/07/16 15:28:27;;;;;;;8.10;1.92;;;21.00;84.20;;;;;;9183014;19;20018;-67
2022/07/16 15:31:30;;;;;;;6.03;1.63;;;20.90;82.20;;;;;;9185322;19;20021;-67
2022/07/16 15:34:34;;;;;;;5.65;1.30;;;20.30;83.00;;;;;;9182803;19;20010;-68
2022/07/16 15:37:41;;;;;;;5.55;1.95;;;20.00;85.50;;;;;;9183109;19;20163;-68
2022/07/16 15:40:46;;;;;;;8.82;1.70;;;20.10;84.90;;;;;;9182645;19;20034;-67
2022/07/16 15:43:50;;;;;;;4.85;1.30;;;20.40;85.20;;;;;;9182758;19;20013;-69
2022/07/16 15:46:54;;;;;;;6.63;1.80;;;20.80;83.50;;;;;;9183673;19;20021;-68
2022/07/16 15:49:58;;;;;;;3.08;1.35;;;21.40;83.20;;;;;;9184486;19;20019;-67
2022/07/16 15:53:05;;;;;;;3.47;1.20;;;21.90;81.20;;;;;;9179275;19;20051;-68
2022/07/16 15:56:10;;;;;;;9.48;3.78;;;22.30;79.30;;;;;;9181447;19;20021;-68
2022/07/16 15:59:14;;;;;;;9.55;2.78;;;21.80;77.80;;;;;;9182108;19;20021;-67
2022/07/16 16:02:18;;;;;;;4.75;1.48;;;21.70;78.30;;;;;;9180239;19;20010;-67
2022/07/16 16:05:22;;;;;;;7.25;2.00;;;21.90;78.60;;;;;;9180702;19;20011;-67
2022/07/16 16:08:29;;;;;;;10.88;3.95;;;21.70;75.40;;;;;;9179432;19;20011;-67
2022/07/16 16:11:33;;;;;;;5.40;1.80;;;21.60;75.80;;;;;;9179962;19;20552;-68
2022/07/16 16:14:37;;;;;;;4.38;1.30;;;21.40;74.40;;;;;;9182440;19;20030;-68
2022/07/16 16:17:41;;;;;;;5.18;1.20;;;21.40;74.40;;;;;;9180446;19;20015;-69
2022/07/16 16:20:45;;;;;;;3.28;1.42;;;21.50;74.90;;;;;;9182451;19;20049;-68
2022/07/16 16:23:51;;;;;;;6.13;1.75;;;21.40;74.30;;;;;;9181295;19;20022;-68
2022/07/16 16:26:55;;;;;;;18.52;6.60;;;21.80;75.90;;;;;;9180685;19;20014;-68